Anderson, Alaska
Current Conditions -  °F | °C
As of 5:53 PM on Thursday 27 Nov 2014 (Local Time) from PANN Reporting Station
Clear Clear  
Wind Chill: -2°   Ceiling: Unl
Heat Index: 12°   Visibility: 10mi
Dew Point:   Wind: 12mph
Humidity: 61%   Direction: 70°ENE
Pressure: 30.21"   Gusts: NA
Location:  64.34°N, 149.19°W
Report Text: PANN 280253Z AUTO 07010KT 10SM CLR M11/M17 A3021 RMK AO2 SLP244 T11111172 58015 TSNO
Loading
Personal Weather Stations






























Interactive Weather Map New forecast layout! Learn more

10-Day Weather Forecast

Advertisements
Track Severe Weather on mobile